Cleveland, Ohio
Current Conditions -  °F | °C
As of 12:53 PM on Thursday 18 Dec 2014 (Local Time) from KBKL Reporting Station
Overcast Overcast  
Wind Chill: 22°   Ceiling: 1900
Heat Index: 31°   Visibility: 10mi
Dew Point: 24°   Wind: 12mph
Humidity: 76%   Direction: 250°WSW
Pressure: 30.17"   Gusts: NA
Location:  41.5°N, 81.69°W
Report Text: KBKL 181753Z 25010KT 10SM OVC019 M01/M04 A3017 RMK AO2 SLP225 T10061044 10000 21006 58010
Loading
Personal Weather Stations






























Interactive Weather Map New forecast layout! Learn more

10-Day Weather Forecast

Advertisements
Track Severe Weather on mobile